Time;durP1;ratioP1;P1;durP2;ratioP2;P2;SDS_P1;SDS_P2;PMS_P1;PMS_P2;Temp;Humidity;BMP_temperature;BMP_pressure;BME280_temperature;BME280_humidity;BME280_pressure;Samples;Min_cycle;Max_cycle;Signal;HPM_P1;HPM_P2
2022/01/11 00:02:18;;;;;;;1.40;1.40;;;1.60;99.90;;;;;;5032740;28;20299;-62
2022/01/11 00:04:46;;;;;;;1.90;1.80;;;1.60;99.90;;;;;;5033084;28;20209;-62
2022/01/11 00:07:15;;;;;;;2.40;2.30;;;1.50;99.90;;;;;;5032782;28;20224;-62
2022/01/11 00:09:43;;;;;;;2.50;2.40;;;1.30;99.90;;;;;;5032892;28;20585;-61
2022/01/11 00:12:11;;;;;;;5.20;4.13;;;1.10;99.90;;;;;;5032738;28;20205;-63
2022/01/11 00:14:38;;;;;;;6.57;4.13;;;0.80;99.90;;;;;;5033362;28;20247;-63
2022/01/11 00:17:06;;;;;;;3.33;3.13;;;0.40;99.90;;;;;;5032572;28;20228;-62
2022/01/11 00:19:33;;;;;;;5.70;3.22;;;0.40;99.90;;;;;;5032477;28;20836;-61
2022/01/11 00:22:06;;;;;;;3.88;3.28;;;0.40;99.90;;;;;;5032133;28;20264;-62
2022/01/11 00:24:34;;;;;;;2.70;2.30;;;0.40;99.90;;;;;;5032574;28;20226;-63
2022/01/11 00:27:03;;;;;;;2.53;2.43;;;0.50;99.90;;;;;;5033299;28;20286;-62
2022/01/11 00:29:31;;;;;;;3.85;2.90;;;0.50;99.90;;;;;;5033337;28;20299;-62
2022/01/11 00:32:03;;;;;;;2.60;2.50;;;0.60;99.90;;;;;;5033206;28;20205;-63
2022/01/11 00:34:39;;;;;;;2.53;2.40;;;0.60;99.90;;;;;;5042242;28;20288;-62
2022/01/11 00:37:08;;;;;;;2.70;2.50;;;0.60;99.90;;;;;;5044899;28;20224;-63
2022/01/11 00:39:35;;;;;;;4.78;3.70;;;0.80;99.90;;;;;;5037945;28;20781;-62
2022/01/11 00:42:02;;;;;;;2.90;2.70;;;0.70;99.90;;;;;;5034409;28;20291;-63
2022/01/11 00:44:29;;;;;;;2.43;2.23;;;0.60;99.90;;;;;;5033904;28;20291;-63
2022/01/11 00:46:55;;;;;;;2.73;2.57;;;0.60;99.90;;;;;;5033199;28;20726;-61
2022/01/11 00:49:22;;;;;;;2.60;2.50;;;0.70;99.90;;;;;;5038498;28;20272;-62
2022/01/11 00:51:49;;;;;;;2.60;2.50;;;0.70;99.90;;;;;;5054605;28;20215;-62
2022/01/11 00:54:17;;;;;;;2.20;2.10;;;0.70;99.90;;;;;;5044589;28;20243;-62
2022/01/11 00:56:44;;;;;;;2.33;2.22;;;0.70;99.90;;;;;;5042399;28;20284;-63
2022/01/11 00:59:11;;;;;;;2.72;2.53;;;0.80;99.90;;;;;;5042555;28;20295;-62
2022/01/11 01:01:38;;;;;;;2.23;2.13;;;0.70;99.90;;;;;;5034670;28;20964;-62
2022/01/11 01:04:06;;;;;;;2.30;2.20;;;0.70;99.90;;;;;;5036411;28;20291;-62
2022/01/11 01:06:33;;;;;;;2.10;2.00;;;0.70;99.90;;;;;;5033260;28;20628;-63
2022/01/11 01:09:00;;;;;;;2.07;1.97;;;0.80;99.90;;;;;;5032113;28;20206;-63
2022/01/11 01:11:28;;;;;;;2.13;2.03;;;0.80;99.90;;;;;;5034959;28;20307;-61
2022/01/11 01:13:55;;;;;;;2.00;1.90;;;0.90;99.90;;;;;;5032342;28;20291;-61
2022/01/11 01:16:22;;;;;;;1.87;1.77;;;0.90;99.90;;;;;;5033453;28;20312;-62
2022/01/11 01:18:49;;;;;;;1.75;1.65;;;0.90;99.90;;;;;;5030859;28;20231;-62
2022/01/11 01:21:18;;;;;;;1.40;1.40;;;0.90;99.90;;;;;;5020311;28;20289;-61
2022/01/11 01:23:45;;;;;;;1.43;1.40;;;0.90;99.90;;;;;;5025215;28;20196;-61
2022/01/11 01:26:12;;;;;;;1.70;1.60;;;0.90;99.90;;;;;;5019794;28;20329;-61
2022/01/11 01:28:40;;;;;;;1.30;1.30;;;0.90;99.90;;;;;;5031872;28;20235;-64
2022/01/11 01:31:07;;;;;;;1.53;1.43;;;0.80;99.90;;;;;;5031773;28;20654;-61
2022/01/11 01:33:35;;;;;;;1.13;1.13;;;0.90;99.90;;;;;;5031442;28;20234;-61
2022/01/11 01:36:04;;;;;;;1.02;1.02;;;1.10;99.90;;;;;;5034293;28;20257;-62
2022/01/11 01:38:32;;;;;;;1.10;1.10;;;1.00;99.90;;;;;;5032574;28;20208;-61
2022/01/11 01:41:01;;;;;;;1.17;1.17;;;1.00;99.90;;;;;;5031680;28;20312;-62
2022/01/11 01:43:29;;;;;;;1.50;1.40;;;1.10;99.90;;;;;;5031214;28;20200;-63
2022/01/11 01:45:59;;;;;;;1.20;1.20;;;1.10;99.90;;;;;;5031449;28;20612;-63
2022/01/11 01:48:26;;;;;;;1.17;1.13;;;1.10;99.90;;;;;;5031673;28;20216;-62
2022/01/11 01:50:53;;;;;;;1.20;1.20;;;1.10;99.90;;;;;;5031588;28;20223;-63
2022/01/11 01:53:21;;;;;;;1.10;1.10;;;1.20;99.90;;;;;;5031040;28;20302;-62
2022/01/11 01:55:48;;;;;;;1.20;1.20;;;1.10;99.90;;;;;;5031016;28;20312;-63
2022/01/11 01:58:16;;;;;;;1.10;1.10;;;1.10;99.90;;;;;;5031535;28;20243;-62
2022/01/11 02:00:51;;;;;;;1.00;1.00;;;1.10;99.90;;;;;;5031495;28;20287;-61
2022/01/11 02:03:26;;;;;;;1.50;1.40;;;1.00;99.90;;;;;;5031435;28;20693;-61
2022/01/11 02:05:54;;;;;;;1.47;1.40;;;1.00;99.90;;;;;;5046287;28;20239;-62
2022/01/11 02:08:21;;;;;;;1.53;1.53;;;0.90;99.90;;;;;;5047815;28;20217;-62
2022/01/11 02:10:48;;;;;;;2.00;1.90;;;0.80;99.90;;;;;;5046469;28;20236;-62
2022/01/11 02:13:15;;;;;;;2.00;1.90;;;0.60;99.90;;;;;;5040374;28;20300;-63
2022/01/11 02:15:42;;;;;;;2.37;2.27;;;0.40;99.90;;;;;;5045394;28;20203;-62
2022/01/11 02:18:11;;;;;;;2.30;2.20;;;0.20;99.90;;;;;;5045840;28;20231;-62
2022/01/11 02:20:40;;;;;;;5.47;3.72;;;0.10;99.90;;;;;;5031873;28;20207;-63
2022/01/11 02:23:07;;;;;;;2.35;2.25;;;0.00;99.90;;;;;;5033770;28;20295;-62
2022/01/11 02:25:35;;;;;;;2.13;2.03;;;-0.20;99.90;;;;;;5035191;28;20216;-62
2022/01/11 02:28:02;;;;;;;2.37;2.27;;;-0.20;99.90;;;;;;5035328;28;20295;-62
2022/01/11 02:30:32;;;;;;;2.37;2.27;;;-0.20;99.90;;;;;;5035361;28;20208;-65
2022/01/11 02:33:01;;;;;;;2.30;2.20;;;-0.20;99.90;;;;;;5034150;28;20211;-62
2022/01/11 02:35:29;;;;;;;2.37;2.27;;;-0.10;99.90;;;;;;5034515;28;20262;-62
2022/01/11 02:37:57;;;;;;;2.40;2.30;;;-0.10;99.90;;;;;;5034588;28;20242;-62
2022/01/11 02:40:24;;;;;;;2.23;2.13;;;-0.10;99.90;;;;;;5034657;28;20243;-61
2022/01/11 02:42:51;;;;;;;2.40;2.30;;;-0.10;99.90;;;;;;5034340;28;20266;-61
2022/01/11 02:45:20;;;;;;;2.90;2.70;;;-0.10;99.90;;;;;;5034772;28;20224;-62
2022/01/11 02:47:48;;;;;;;3.40;3.10;;;-0.40;99.90;;;;;;5034528;28;20315;-60
2022/01/11 02:50:17;;;;;;;4.18;3.30;;;-0.60;99.90;;;;;;5049294;28;20244;-63
2022/01/11 02:52:44;;;;;;;3.80;3.43;;;-0.70;99.90;;;;;;5037240;28;20243;-64
2022/01/11 02:55:15;;;;;;;2.72;2.53;;;-0.80;99.90;;;;;;5018239;28;20711;-63
2022/01/11 02:57:42;;;;;;;3.10;2.90;;;-0.80;99.90;;;;;;5013340;28;20316;-62
2022/01/11 03:00:12;;;;;;;3.60;2.93;;;-0.70;99.90;;;;;;5013361;28;20201;-62
2022/01/11 03:02:39;;;;;;;2.40;2.28;;;-0.60;99.90;;;;;;5014664;28;20203;-63
2022/01/11 03:05:06;;;;;;;3.05;2.85;;;-0.60;99.90;;;;;;5094165;22;20668;-65
2022/01/11 03:07:33;;;;;;;2.20;2.10;;;-0.50;99.90;;;;;;5066631;28;20283;-65
2022/01/11 03:10:05;;;;;;;2.28;2.17;;;-0.40;99.90;;;;;;5057665;28;20239;-64
2022/01/11 03:12:33;;;;;;;2.40;2.30;;;-0.30;99.90;;;;;;5056836;28;20402;-63
2022/01/11 03:15:00;;;;;;;2.50;2.40;;;-0.30;99.90;;;;;;5055217;28;20259;-65
2022/01/11 03:17:27;;;;;;;2.28;2.17;;;-0.40;99.90;;;;;;5056984;28;20282;-65
2022/01/11 03:19:54;;;;;;;3.03;2.77;;;-0.50;99.90;;;;;;5055294;28;20208;-63
2022/01/11 03:22:21;;;;;;;2.20;2.10;;;-0.70;99.90;;;;;;5058916;28;20200;-64
2022/01/11 03:24:48;;;;;;;2.40;2.30;;;-0.70;99.90;;;;;;5055037;28;20227;-63
2022/01/11 03:27:15;;;;;;;3.67;3.37;;;-0.80;99.90;;;;;;5056827;28;20284;-65
2022/01/11 03:29:44;;;;;;;6.63;4.30;;;-1.00;99.90;;;;;;5073073;28;20250;-64
2022/01/11 03:32:12;;;;;;;3.23;2.90;;;-1.10;99.90;;;;;;5072617;28;20219;-64
2022/01/11 03:34:41;;;;;;;4.88;3.60;;;-1.10;99.90;;;;;;5072453;28;20219;-63
2022/01/11 03:37:10;;;;;;;4.80;2.90;;;-1.10;99.90;;;;;;5072622;28;20215;-64
2022/01/11 03:39:37;;;;;;;5.00;3.63;;;-1.00;99.90;;;;;;5072776;28;20214;-64
2022/01/11 03:42:04;;;;;;;2.43;2.23;;;-1.10;99.90;;;;;;5072796;28;20639;-63
2022/01/11 03:44:31;;;;;;;2.08;1.98;;;-1.20;99.90;;;;;;5072534;28;20219;-64
2022/01/11 03:46:59;;;;;;;2.40;2.30;;;-1.10;99.90;;;;;;5072798;28;20227;-65
2022/01/11 03:49:26;;;;;;;2.23;2.13;;;-1.00;99.90;;;;;;5072540;28;20618;-64
2022/01/11 03:51:53;;;;;;;4.18;3.72;;;-0.90;99.90;;;;;;5072531;28;20210;-64
2022/01/11 03:54:25;;;;;;;2.87;2.40;;;-0.80;99.90;;;;;;5072398;28;20281;-63
2022/01/11 03:56:53;;;;;;;2.90;2.43;;;-0.90;99.90;;;;;;5072988;28;20199;-64
2022/01/11 03:59:22;;;;;;;5.75;3.88;;;-0.90;99.90;;;;;;5074207;28;20310;-63
2022/01/11 04:01:51;;;;;;;5.73;3.03;;;-1.00;99.90;;;;;;5073651;28;20884;-63
2022/01/11 04:04:19;;;;;;;13.37;5.47;;;-1.20;99.90;;;;;;5073527;28;20284;-63
2022/01/11 04:06:46;;;;;;;9.93;5.07;;;-1.20;99.90;;;;;;5072687;28;20241;-64
2022/01/11 04:09:13;;;;;;;3.40;2.85;;;-1.40;99.90;;;;;;5073093;28;20211;-64
2022/01/11 04:11:40;;;;;;;2.20;2.10;;;-1.50;99.90;;;;;;5073893;28;20207;-63
2022/01/11 04:14:07;;;;;;;4.47;3.57;;;-1.40;99.90;;;;;;5072656;28;20215;-64
2022/01/11 04:16:34;;;;;;;2.90;2.70;;;-1.30;99.90;;;;;;5072229;28;20591;-63
2022/01/11 04:19:01;;;;;;;2.20;2.10;;;-1.40;99.90;;;;;;5073077;28;20242;-64
2022/01/11 04:21:29;;;;;;;2.07;1.97;;;-1.30;99.90;;;;;;5073282;28;20290;-64
2022/01/11 04:23:56;;;;;;;2.10;2.00;;;-1.20;99.90;;;;;;5073251;28;20246;-64
2022/01/11 04:26:23;;;;;;;2.13;2.03;;;-1.00;99.90;;;;;;5073879;28;20215;-64
2022/01/11 04:28:50;;;;;;;1.90;1.80;;;-0.90;99.90;;;;;;5073109;28;20209;-64
2022/01/11 04:31:17;;;;;;;2.33;2.13;;;-0.80;99.90;;;;;;5072186;28;20293;-64
2022/01/11 04:33:45;;;;;;;2.20;2.10;;;-0.70;99.90;;;;;;5072953;28;20265;-64
2022/01/11 04:36:13;;;;;;;2.20;2.10;;;-0.70;99.90;;;;;;5072713;28;20211;-64
2022/01/11 04:38:41;;;;;;;2.08;1.98;;;-0.70;99.90;;;;;;5074075;28;20234;-62
2022/01/11 04:41:09;;;;;;;2.23;2.13;;;-0.70;99.90;;;;;;5072926;28;20305;-64
2022/01/11 04:43:36;;;;;;;2.30;2.17;;;-0.70;99.90;;;;;;5072707;28;20258;-63
2022/01/11 04:46:03;;;;;;;3.73;2.77;;;-0.80;99.90;;;;;;5071501;28;20207;-63
2022/01/11 04:48:32;;;;;;;3.80;3.15;;;-1.10;99.90;;;;;;5073773;28;20772;-63
2022/01/11 04:51:00;;;;;;;2.65;2.45;;;-1.30;99.90;;;;;;5075658;28;20282;-64
2022/01/11 04:53:27;;;;;;;3.23;2.73;;;-1.40;99.90;;;;;;5071700;28;20207;-64
2022/01/11 04:55:56;;;;;;;2.92;2.67;;;-1.50;99.90;;;;;;5071656;28;20302;-63
2022/01/11 04:58:23;;;;;;;6.83;3.70;;;-1.50;99.90;;;;;;5071295;28;20195;-63
2022/01/11 05:00:51;;;;;;;1.87;1.77;;;-1.60;99.90;;;;;;5071565;28;20402;-64
2022/01/11 05:03:19;;;;;;;2.00;1.90;;;-1.60;99.90;;;;;;5070804;28;20260;-64
2022/01/11 05:05:46;;;;;;;2.10;2.00;;;-1.40;99.90;;;;;;5071193;28;20215;-64
2022/01/11 05:08:13;;;;;;;2.57;2.13;;;-1.30;99.90;;;;;;5071540;28;20641;-62
2022/01/11 05:10:42;;;;;;;2.43;2.27;;;-1.40;99.90;;;;;;5071602;28;20234;-63
2022/01/11 05:13:12;;;;;;;2.97;2.57;;;-1.40;99.90;;;;;;5070469;28;20340;-63
2022/01/11 05:15:39;;;;;;;4.80;2.63;;;-1.40;99.90;;;;;;5072834;28;20294;-64
2022/01/11 05:18:07;;;;;;;7.53;4.20;;;-1.30;99.90;;;;;;5075893;28;20575;-64
2022/01/11 05:20:35;;;;;;;4.10;3.55;;;-1.40;99.90;;;;;;5077118;28;20286;-64
2022/01/11 05:23:02;;;;;;;7.33;3.77;;;-1.50;99.90;;;;;;5071071;28;20290;-65
2022/01/11 05:25:29;;;;;;;2.60;2.40;;;-1.60;99.90;;;;;;5071838;28;20255;-64
2022/01/11 05:27:56;;;;;;;14.93;5.95;;;-1.60;99.90;;;;;;5069481;28;20773;-65
2022/01/11 05:30:24;;;;;;;3.45;2.75;;;-1.60;99.90;;;;;;5071849;28;20727;-62
2022/01/11 05:32:51;;;;;;;9.18;5.10;;;-1.60;99.90;;;;;;5071034;28;20290;-64
2022/01/11 05:35:20;;;;;;;3.85;2.72;;;-1.60;99.90;;;;;;5070626;28;20261;-63
2022/01/11 05:37:47;;;;;;;3.63;2.60;;;-1.60;99.90;;;;;;5071086;28;20373;-63
2022/01/11 05:40:16;;;;;;;5.63;3.73;;;-1.60;99.90;;;;;;5070727;28;20397;-63
2022/01/11 05:42:44;;;;;;;3.10;2.73;;;-1.50;99.90;;;;;;5070422;28;20719;-64
2022/01/11 05:45:12;;;;;;;2.10;2.00;;;-1.50;99.90;;;;;;5071403;28;20656;-64
2022/01/11 05:47:41;;;;;;;3.05;2.25;;;-1.50;99.90;;;;;;5071685;28;20221;-64
2022/01/11 05:50:11;;;;;;;3.88;3.10;;;-1.40;99.90;;;;;;5070608;28;20294;-62
2022/01/11 05:52:39;;;;;;;2.10;2.00;;;-1.50;99.90;;;;;;5070638;28;20278;-65
2022/01/11 05:55:08;;;;;;;1.83;1.73;;;-1.40;99.90;;;;;;5070725;28;20324;-65
2022/01/11 05:57:35;;;;;;;2.63;2.43;;;-1.20;99.90;;;;;;5074231;28;20294;-63
2022/01/11 06:00:03;;;;;;;1.90;1.80;;;-1.30;99.90;;;;;;5075186;28;20302;-63
2022/01/11 06:02:30;;;;;;;2.20;2.10;;;-1.20;99.90;;;;;;5069225;28;20697;-65
2022/01/11 06:04:59;;;;;;;1.90;1.80;;;-1.10;99.90;;;;;;5074566;28;20229;-64
2022/01/11 06:07:26;;;;;;;2.28;2.08;;;-1.00;99.90;;;;;;5075824;28;20243;-63
2022/01/11 06:09:52;;;;;;;2.53;2.17;;;-0.90;99.90;;;;;;5075220;28;20245;-63
2022/01/11 06:12:19;;;;;;;2.47;2.37;;;-1.00;99.90;;;;;;5078691;28;20722;-63
2022/01/11 06:14:46;;;;;;;2.80;2.55;;;-1.00;99.90;;;;;;5076246;28;20227;-64
2022/01/11 06:17:13;;;;;;;2.10;2.00;;;-0.90;99.90;;;;;;5077245;28;20195;-64
2022/01/11 06:19:40;;;;;;;2.20;2.10;;;-1.00;99.90;;;;;;5076789;28;20685;-64
2022/01/11 06:22:08;;;;;;;3.20;2.90;;;-0.90;99.90;;;;;;5075220;28;20294;-64
2022/01/11 06:24:35;;;;;;;2.20;2.10;;;-0.80;99.90;;;;;;5074158;28;20318;-64
2022/01/11 06:27:02;;;;;;;2.65;2.55;;;-0.90;99.90;;;;;;5074106;28;20251;-64
2022/01/11 06:29:29;;;;;;;5.53;3.45;;;-0.80;99.90;;;;;;5062159;28;20287;-63
2022/01/11 06:31:56;;;;;;;3.47;3.17;;;-0.70;99.90;;;;;;5074168;28;20302;-65
2022/01/11 06:34:22;;;;;;;9.70;5.87;;;-0.70;99.90;;;;;;5075632;28;20229;-64
2022/01/11 06:36:49;;;;;;;3.33;3.03;;;-0.70;99.90;;;;;;5076711;28;20252;-64
2022/01/11 06:39:18;;;;;;;16.10;6.90;;;-0.80;99.90;;;;;;5074179;28;20207;-63
2022/01/11 06:41:44;;;;;;;9.68;5.97;;;-0.90;99.90;;;;;;5074182;28;20294;-65
2022/01/11 06:44:11;;;;;;;3.40;3.00;;;-0.90;99.90;;;;;;5069264;28;20255;-63
2022/01/11 06:46:39;;;;;;;6.88;5.63;;;-0.80;99.90;;;;;;5058058;28;20264;-64
2022/01/11 06:49:06;;;;;;;6.80;4.03;;;-0.80;99.90;;;;;;5052995;28;20232;-64
2022/01/11 06:51:33;;;;;;;2.92;2.72;;;-0.80;99.90;;;;;;5052867;28;20254;-64
2022/01/11 06:54:00;;;;;;;3.35;2.88;;;-0.80;99.90;;;;;;5053662;28;20303;-64
2022/01/11 06:56:28;;;;;;;3.22;2.92;;;-0.60;99.90;;;;;;5057088;28;20235;-65
2022/01/11 06:58:55;;;;;;;3.33;3.05;;;-0.50;99.90;;;;;;5056210;28;20226;-65
2022/01/11 07:01:22;;;;;;;3.13;2.93;;;-0.40;99.90;;;;;;5064000;28;20231;-64
2022/01/11 07:03:49;;;;;;;3.47;3.17;;;-0.40;99.90;;;;;;5074444;28;20594;-65
2022/01/11 07:06:16;;;;;;;5.50;4.23;;;-0.30;99.90;;;;;;5065612;28;20647;-64
2022/01/11 07:08:43;;;;;;;3.87;3.47;;;-0.40;99.90;;;;;;5056096;28;20310;-65
2022/01/11 07:11:12;;;;;;;3.70;3.40;;;-0.50;99.90;;;;;;5061515;28;20204;-64
2022/01/11 07:13:40;;;;;;;4.10;3.80;;;-0.50;99.90;;;;;;5056405;28;20222;-64
2022/01/11 07:16:07;;;;;;;4.47;3.60;;;-0.50;99.90;;;;;;5060660;28;20233;-64
2022/01/11 07:18:34;;;;;;;4.13;3.83;;;-0.60;99.90;;;;;;5067561;28;20282;-65
2022/01/11 07:21:01;;;;;;;3.80;3.50;;;-0.60;99.90;;;;;;5062062;28;20295;-63
2022/01/11 07:23:28;;;;;;;4.13;3.80;;;-0.60;99.90;;;;;;5060698;28;20286;-64
2022/01/11 07:25:54;;;;;;;3.33;3.13;;;-0.40;99.90;;;;;;5063665;28;20286;-66
2022/01/11 07:28:22;;;;;;;3.67;3.38;;;-0.40;99.90;;;;;;5067406;28;20230;-65
2022/01/11 07:30:51;;;;;;;3.20;3.00;;;-0.40;99.90;;;;;;5076560;28;20544;-66
2022/01/11 07:33:18;;;;;;;3.13;2.93;;;-0.40;99.90;;;;;;5073430;28;20202;-65
2022/01/11 07:35:45;;;;;;;2.53;2.33;;;-0.30;99.90;;;;;;5073501;28;20293;-64
2022/01/11 07:38:12;;;;;;;2.70;2.50;;;-0.30;99.90;;;;;;5073693;28;20195;-64
2022/01/11 07:40:39;;;;;;;2.43;2.33;;;-0.20;99.90;;;;;;5073722;28;20261;-64
2022/01/11 07:43:06;;;;;;;2.63;2.45;;;0.00;99.90;;;;;;5072738;28;20331;-65
2022/01/11 07:45:33;;;;;;;2.30;2.20;;;-0.10;99.90;;;;;;5073909;28;20580;-64
2022/01/11 07:48:01;;;;;;;2.50;2.30;;;0.00;99.90;;;;;;5073856;28;20742;-65
2022/01/11 07:50:29;;;;;;;2.53;2.33;;;0.20;99.90;;;;;;5074348;28;20254;-64
2022/01/11 07:52:55;;;;;;;2.40;2.30;;;0.00;99.90;;;;;;5073306;28;20207;-65
2022/01/11 07:55:23;;;;;;;3.22;3.03;;;0.10;99.90;;;;;;5073804;28;20223;-65
2022/01/11 07:57:50;;;;;;;3.20;3.00;;;0.20;99.90;;;;;;5073716;28;20199;-65
2022/01/11 08:00:17;;;;;;;3.53;3.33;;;0.10;99.90;;;;;;5072635;28;20313;-65
2022/01/11 08:02:44;;;;;;;3.03;2.83;;;0.10;99.90;;;;;;5072787;28;20206;-64
2022/01/11 08:05:12;;;;;;;3.27;3.07;;;0.10;99.90;;;;;;5072220;28;20664;-66
2022/01/11 08:07:42;;;;;;;3.47;3.20;;;0.00;99.90;;;;;;5070843;28;20310;-66
2022/01/11 08:10:11;;;;;;;4.67;4.17;;;-0.10;99.90;;;;;;5073023;28;20624;-64
2022/01/11 08:12:38;;;;;;;4.83;3.77;;;-0.10;99.90;;;;;;5072993;28;20203;-64
2022/01/11 08:15:06;;;;;;;5.40;4.00;;;-0.30;99.90;;;;;;5073411;28;20254;-64
2022/01/11 08:17:33;;;;;;;4.00;3.70;;;-0.30;99.90;;;;;;5073106;28;20652;-64
2022/01/11 08:20:00;;;;;;;4.40;4.10;;;-0.40;99.90;;;;;;5072728;28;20356;-63
2022/01/11 08:22:28;;;;;;;3.97;3.60;;;-0.30;99.90;;;;;;5072786;28;20211;-65
2022/01/11 08:24:55;;;;;;;4.05;3.75;;;-0.30;99.90;;;;;;5072947;28;20337;-65
2022/01/11 08:27:22;;;;;;;3.80;3.50;;;-0.30;99.90;;;;;;5072812;28;20298;-64
2022/01/11 08:29:50;;;;;;;3.33;3.03;;;-0.30;99.90;;;;;;5073182;28;20578;-65
2022/01/11 08:32:17;;;;;;;3.60;3.30;;;-0.20;99.90;;;;;;5072690;28;20206;-65
2022/01/11 08:34:44;;;;;;;3.30;3.10;;;-0.10;99.90;;;;;;5072908;28;20590;-64
2022/01/11 08:37:12;;;;;;;3.78;3.47;;;0.00;99.90;;;;;;5072503;28;20743;-65
2022/01/11 08:39:42;;;;;;;3.45;3.25;;;0.00;99.90;;;;;;5072462;28;20210;-65
2022/01/11 08:42:12;;;;;;;3.23;3.03;;;0.20;99.90;;;;;;5072460;28;20370;-65
2022/01/11 08:44:40;;;;;;;3.15;2.95;;;0.30;99.90;;;;;;5072362;28;20226;-64
2022/01/11 08:47:07;;;;;;;4.00;3.70;;;0.50;99.90;;;;;;5072616;28;20661;-66
2022/01/11 08:49:34;;;;;;;3.50;3.30;;;0.60;99.90;;;;;;5082479;28;20215;-65
2022/01/11 08:52:01;;;;;;;3.80;3.60;;;0.80;99.90;;;;;;5079971;28;20203;-65
2022/01/11 08:54:29;;;;;;;3.33;3.13;;;0.80;99.90;;;;;;5090889;28;20219;-66
2022/01/11 08:56:57;;;;;;;3.63;3.43;;;0.90;99.90;;;;;;5091791;28;20208;-66
2022/01/11 08:59:25;;;;;;;2.80;2.60;;;1.00;99.90;;;;;;5082239;28;20286;-64
2022/01/11 09:01:55;;;;;;;3.50;3.30;;;1.10;99.90;;;;;;5085369;28;20199;-64
2022/01/11 09:04:22;;;;;;;2.60;2.50;;;1.20;99.90;;;;;;5096999;22;20344;-62
2022/01/11 09:06:50;;;;;;;4.20;3.90;;;1.30;99.90;;;;;;5082737;28;20190;-62
2022/01/11 09:09:17;;;;;;;4.50;4.20;;;1.40;99.90;;;;;;5077995;28;20222;-63
2022/01/11 09:11:45;;;;;;;3.80;3.60;;;1.50;99.90;;;;;;5090435;28;20660;-62
2022/01/11 09:14:13;;;;;;;3.60;3.40;;;1.50;99.90;;;;;;5076111;28;20748;-61
2022/01/11 09:16:40;;;;;;;2.83;2.60;;;1.60;99.90;;;;;;5072635;28;20227;-63
2022/01/11 09:19:07;;;;;;;3.23;3.03;;;1.60;99.90;;;;;;5072878;28;20286;-62
2022/01/11 09:21:35;;;;;;;3.10;2.90;;;1.70;99.90;;;;;;5072705;28;20289;-62
2022/01/11 09:24:02;;;;;;;3.70;3.50;;;1.90;99.90;;;;;;5071787;28;20241;-63
2022/01/11 09:26:30;;;;;;;3.83;3.63;;;1.90;99.90;;;;;;5071481;28;20210;-62
2022/01/11 09:28:57;;;;;;;3.50;3.30;;;2.10;99.90;;;;;;5069140;28;20705;-62
2022/01/11 09:31:25;;;;;;;2.87;2.70;;;2.20;99.90;;;;;;5060625;28;20199;-62
2022/01/11 09:33:52;;;;;;;2.80;2.60;;;2.50;99.90;;;;;;5060698;28;20213;-63
2022/01/11 09:36:19;;;;;;;2.77;2.60;;;2.60;99.90;;;;;;5066061;28;20575;-63
2022/01/11 09:38:46;;;;;;;2.63;2.53;;;2.80;99.90;;;;;;5067488;28;20281;-63
2022/01/11 09:41:13;;;;;;;2.70;2.50;;;2.80;99.90;;;;;;5068438;28;20744;-65
2022/01/11 09:43:41;;;;;;;2.70;2.60;;;2.90;99.90;;;;;;5071876;28;20270;-63
2022/01/11 09:46:08;;;;;;;2.97;2.77;;;3.20;99.90;;;;;;5063457;28;20235;-62
2022/01/11 09:48:36;;;;;;;2.97;2.77;;;3.30;99.90;;;;;;5069206;28;20242;-63
2022/01/11 09:51:03;;;;;;;2.47;2.37;;;3.50;99.90;;;;;;5066863;28;20235;-63
2022/01/11 09:53:30;;;;;;;2.30;2.20;;;3.60;99.90;;;;;;5074126;28;20201;-63
2022/01/11 09:55:58;;;;;;;2.00;1.90;;;3.80;99.90;;;;;;5065410;28;20225;-63
2022/01/11 09:58:24;;;;;;;2.70;2.50;;;4.00;99.90;;;;;;5060092;28;20291;-62
2022/01/11 10:00:52;;;;;;;2.13;2.03;;;4.10;99.90;;;;;;5052018;28;20234;-63
2022/01/11 10:03:19;;;;;;;2.30;2.20;;;4.20;99.90;;;;;;5069717;28;20291;-63
2022/01/11 10:05:47;;;;;;;2.53;2.43;;;4.40;99.90;;;;;;5057277;28;20323;-63
2022/01/11 10:08:27;;;;;;;2.23;2.13;;;4.60;99.90;;;;;;5053492;28;20306;-62
2022/01/11 10:10:55;;;;;;;2.60;2.40;;;4.70;99.90;;;;;;5054429;28;20199;-63
2022/01/11 10:13:33;;;;;;;2.30;2.20;;;4.80;99.90;;;;;;5056616;28;20200;-64
2022/01/11 10:16:19;;;;;;;4.13;3.87;;;4.80;99.90;;;;;;5055007;28;20354;-62
2022/01/11 10:18:47;;;;;;;3.20;3.00;;;4.60;99.90;;;;;;5058192;28;20567;-64
2022/01/11 10:21:37;;;;;;;3.47;3.17;;;4.40;99.90;;;;;;5055108;28;20306;-62
2022/01/11 10:24:27;;;;;;;3.17;2.97;;;3.90;99.90;;;;;;5057589;28;20224;-63
2022/01/11 10:26:56;;;;;;;3.50;3.30;;;3.60;99.90;;;;;;5061581;28;20191;-64
2022/01/11 10:29:37;;;;;;;3.73;3.53;;;3.30;99.90;;;;;;5059161;28;20224;-63
2022/01/11 10:32:14;;;;;;;3.20;3.00;;;3.00;99.90;;;;;;5053803;28;20684;-63
2022/01/11 10:34:41;;;;;;;3.47;3.27;;;2.70;99.90;;;;;;5069765;28;20306;-64
2022/01/11 10:37:10;;;;;;;3.30;3.10;;;2.60;99.90;;;;;;5071979;28;20597;-62
2022/01/11 10:39:39;;;;;;;3.30;3.10;;;2.60;99.90;;;;;;5073332;28;20227;-62
2022/01/11 10:42:10;;;;;;;3.43;3.23;;;2.60;99.90;;;;;;5072418;28;20211;-61
2022/01/11 10:44:53;;;;;;;2.87;2.73;;;2.60;99.90;;;;;;5075420;28;20235;-62
2022/01/11 10:47:23;;;;;;;2.87;2.67;;;2.80;99.90;;;;;;5075581;28;20246;-64
2022/01/11 10:49:52;;;;;;;3.13;2.93;;;2.90;99.90;;;;;;5075733;28;20292;-62
2022/01/11 10:52:22;;;;;;;2.77;2.57;;;2.80;99.90;;;;;;5075378;28;20195;-62
2022/01/11 10:54:50;;;;;;;2.90;2.70;;;2.70;99.90;;;;;;5072246;28;20304;-62
2022/01/11 10:57:19;;;;;;;2.80;2.60;;;2.90;99.90;;;;;;5074016;28;20275;-61
2022/01/11 11:00:09;;;;;;;2.73;2.63;;;2.90;99.90;;;;;;5075336;28;20291;-62
2022/01/11 11:02:37;;;;;;;2.70;2.60;;;2.90;99.90;;;;;;5079603;28;20205;-64
2022/01/11 11:05:15;;;;;;;3.00;2.80;;;3.00;99.90;;;;;;5076718;28;20613;-62
2022/01/11 11:07:45;;;;;;;2.60;2.50;;;3.00;99.90;;;;;;5074324;28;20199;-62
2022/01/11 11:10:12;;;;;;;3.40;3.20;;;3.10;99.90;;;;;;5065618;28;20306;-61
2022/01/11 11:12:40;;;;;;;3.37;3.17;;;3.10;99.90;;;;;;5068135;28;20265;-62
2022/01/11 11:15:07;;;;;;;3.10;2.90;;;3.10;99.90;;;;;;5067117;28;20235;-61
2022/01/11 11:17:36;;;;;;;3.23;3.03;;;3.10;99.90;;;;;;5064018;28;20198;-63
2022/01/11 11:20:07;;;;;;;2.97;2.77;;;3.20;99.90;;;;;;5064092;28;20300;-61
2022/01/11 11:22:34;;;;;;;3.23;3.03;;;3.40;99.90;;;;;;5068438;28;20202;-61
2022/01/11 11:25:04;;;;;;;3.03;2.83;;;3.60;99.90;;;;;;5065401;28;20219;-61
2022/01/11 11:27:32;;;;;;;3.10;2.90;;;3.60;99.90;;;;;;5064854;28;20745;-62
2022/01/11 11:30:00;;;;;;;3.40;3.20;;;3.60;99.90;;;;;;5062851;28;20229;-63
2022/01/11 11:32:27;;;;;;;2.70;2.60;;;3.90;99.90;;;;;;5067922;28;20626;-63
2022/01/11 11:34:54;;;;;;;2.70;2.60;;;3.90;99.90;;;;;;5067346;28;20314;-61
2022/01/11 11:37:26;;;;;;;2.90;2.70;;;4.00;99.90;;;;;;5070388;28;20199;-62
2022/01/11 11:39:59;;;;;;;2.90;2.80;;;4.10;99.90;;;;;;5064228;28;20200;-62
2022/01/11 11:42:30;;;;;;;2.97;2.80;;;4.00;99.90;;;;;;5063079;28;20287;-63
2022/01/11 11:44:59;;;;;;;2.90;2.70;;;4.10;99.90;;;;;;5072787;28;20245;-64
2022/01/11 11:47:32;;;;;;;2.87;2.77;;;4.10;99.90;;;;;;5073122;28;20312;-62
2022/01/11 11:50:00;;;;;;;2.73;2.53;;;4.20;99.90;;;;;;5074478;28;20215;-63
2022/01/11 11:52:31;;;;;;;2.70;2.60;;;4.20;99.90;;;;;;5074540;28;20780;-63
2022/01/11 11:54:59;;;;;;;2.60;2.40;;;4.20;99.90;;;;;;5073872;28;20251;-63
2022/01/11 11:57:30;;;;;;;2.57;2.47;;;4.30;99.90;;;;;;5076015;28;20206;-61
2022/01/11 11:59:59;;;;;;;2.30;2.20;;;4.40;99.90;;;;;;5072984;28;20210;-61
2022/01/11 12:02:38;;;;;;;2.90;2.70;;;4.50;99.90;;;;;;5075232;28;20666;-62
2022/01/11 12:05:07;;;;;;;2.57;2.37;;;4.60;99.90;;;;;;5076808;28;20246;-63
2022/01/11 12:07:38;;;;;;;2.58;2.47;;;4.60;99.90;;;;;;5076707;28;20200;-62
2022/01/11 12:10:09;;;;;;;2.40;2.30;;;4.50;99.90;;;;;;5074628;28;20218;-62
2022/01/11 12:12:49;;;;;;;2.67;2.47;;;4.50;99.90;;;;;;5073957;28;20198;-64
2022/01/11 12:15:37;;;;;;;2.40;2.30;;;4.60;99.90;;;;;;5078077;28;20625;-63
2022/01/11 12:18:15;;;;;;;2.50;2.40;;;4.60;99.90;;;;;;5076040;28;20290;-61
2022/01/11 12:20:43;;;;;;;2.50;2.40;;;4.60;99.90;;;;;;5074558;28;20226;-63
2022/01/11 12:23:13;;;;;;;2.70;2.60;;;4.50;99.90;;;;;;5076927;28;20234;-63
2022/01/11 12:25:43;;;;;;;3.10;2.90;;;4.50;99.90;;;;;;5076221;28;20708;-63
2022/01/11 12:28:18;;;;;;;2.93;2.80;;;4.50;99.90;;;;;;5076671;28;20202;-64
2022/01/11 12:30:45;;;;;;;3.53;3.33;;;4.60;99.90;;;;;;5076674;28;20214;-63
2022/01/11 12:33:14;;;;;;;2.77;2.67;;;4.60;99.90;;;;;;5078411;28;20653;-63
2022/01/11 12:35:56;;;;;;;3.30;3.10;;;4.80;99.90;;;;;;5073549;28;20567;-62
2022/01/11 12:38:24;;;;;;;3.40;3.20;;;4.90;99.90;;;;;;5079336;28;20286;-62
2022/01/11 12:40:51;;;;;;;3.63;3.43;;;4.90;99.90;;;;;;5076609;28;20717;-64
2022/01/11 12:43:40;;;;;;;3.50;3.30;;;4.90;99.90;;;;;;5074134;28;20282;-63
2022/01/11 12:46:09;;;;;;;3.50;3.30;;;4.90;99.90;;;;;;5074954;28;20226;-62
2022/01/11 12:49:02;;;;;;;3.63;3.43;;;5.20;99.90;;;;;;5078208;28;20205;-63
2022/01/11 12:51:31;;;;;;;3.30;3.10;;;5.30;99.90;;;;;;5078599;28;20281;-61
2022/01/11 12:54:23;;;;;;;3.93;3.73;;;5.40;99.90;;;;;;5076554;28;20216;-63
2022/01/11 12:56:53;;;;;;;4.00;3.80;;;5.40;99.90;;;;;;5075133;28;20210;-63
2022/01/11 12:59:22;;;;;;;3.60;3.40;;;5.50;99.90;;;;;;5062803;28;20295;-63
2022/01/11 13:02:02;;;;;;;3.57;3.37;;;5.40;99.90;;;;;;5059882;28;20235;-63